sensor_id;sensor_type;location;lat;lon;timestamp;temperature;humidity
26691;DHT22;14307;51.718;8.938;2023-09-18T00:00:33;17.60;99.90
26691;DHT22;14307;51.718;8.938;2023-09-18T00:03:01;17.70;99.90
26691;DHT22;14307;51.718;8.938;2023-09-18T00:05:30;17.70;99.90
26691;DHT22;14307;51.718;8.938;2023-09-18T00:07:57;17.80;99.90
26691;DHT22;14307;51.718;8.938;2023-09-18T00:10:26;17.70;99.90
26691;DHT22;14307;51.718;8.938;2023-09-18T00:12:53;17.70;99.90
26691;DHT22;14307;51.718;8.938;2023-09-18T00:15:20;17.80;99.90
26691;DHT22;14307;51.718;8.938;2023-09-18T00:17:47;17.80;99.90
26691;DHT22;14307;51.718;8.938;2023-09-18T00:20:14;17.80;99.90
26691;DHT22;14307;51.718;8.938;2023-09-18T00:22:43;17.80;99.90
26691;DHT22;14307;51.718;8.938;2023-09-18T00:25:10;17.80;99.90
26691;DHT22;14307;51.718;8.938;2023-09-18T00:27:37;17.90;99.90
26691;DHT22;14307;51.718;8.938;2023-09-18T00:30:04;17.90;99.90
26691;DHT22;14307;51.718;8.938;2023-09-18T00:32:31;17.90;99.90
26691;DHT22;14307;51.718;8.938;2023-09-18T00:34:59;17.90;99.90
26691;DHT22;14307;51.718;8.938;2023-09-18T00:37:26;17.90;99.90
26691;DHT22;14307;51.718;8.938;2023-09-18T00:39:53;18.00;99.90
26691;DHT22;14307;51.718;8.938;2023-09-18T00:42:19;18.00;99.90
26691;DHT22;14307;51.718;8.938;2023-09-18T00:44:48;17.90;99.90
26691;DHT22;14307;51.718;8.938;2023-09-18T00:47:16;17.90;99.90
26691;DHT22;14307;51.718;8.938;2023-09-18T00:49:47;17.90;99.90
26691;DHT22;14307;51.718;8.938;2023-09-18T00:52:15;17.90;99.90
26691;DHT22;14307;51.718;8.938;2023-09-18T00:54:44;17.80;99.90
26691;DHT22;14307;51.718;8.938;2023-09-18T00:57:11;17.90;99.90
26691;DHT22;14307;51.718;8.938;2023-09-18T00:59:39;17.90;99.90
26691;DHT22;14307;51.718;8.938;2023-09-18T01:02:06;17.70;99.90
26691;DHT22;14307;51.718;8.938;2023-09-18T01:04:33;17.80;99.90
26691;DHT22;14307;51.718;8.938;2023-09-18T01:07:01;17.70;99.90
26691;DHT22;14307;51.718;8.938;2023-09-18T01:09:31;17.70;99.90
26691;DHT22;14307;51.718;8.938;2023-09-18T01:12:05;17.70;99.90
26691;DHT22;14307;51.718;8.938;2023-09-18T01:14:59;17.70;99.90
26691;DHT22;14307;51.718;8.938;2023-09-18T01:17:34;17.70;99.90
26691;DHT22;14307;51.718;8.938;2023-09-18T01:20:01;17.70;99.90
26691;DHT22;14307;51.718;8.938;2023-09-18T01:22:31;17.70;99.90
26691;DHT22;14307;51.718;8.938;2023-09-18T01:24:58;17.70;99.90
26691;DHT22;14307;51.718;8.938;2023-09-18T01:27:25;17.70;99.90
26691;DHT22;14307;51.718;8.938;2023-09-18T01:29:52;17.70;99.90
26691;DHT22;14307;51.718;8.938;2023-09-18T01:32:21;17.60;99.90
26691;DHT22;14307;51.718;8.938;2023-09-18T01:34:54;17.60;99.90
26691;DHT22;14307;51.718;8.938;2023-09-18T01:37:24;17.60;99.90
26691;DHT22;14307;51.718;8.938;2023-09-18T01:39:52;17.70;99.90
26691;DHT22;14307;51.718;8.938;2023-09-18T01:42:20;17.70;99.90
26691;DHT22;14307;51.718;8.938;2023-09-18T01:44:47;17.60;99.90
26691;DHT22;14307;51.718;8.938;2023-09-18T01:47:17;17.70;99.90
26691;DHT22;14307;51.718;8.938;2023-09-18T01:49:44;17.70;99.90
26691;DHT22;14307;51.718;8.938;2023-09-18T01:52:13;17.60;99.90
26691;DHT22;14307;51.718;8.938;2023-09-18T01:54:40;17.60;99.90
26691;DHT22;14307;51.718;8.938;2023-09-18T01:57:07;17.50;99.90
26691;DHT22;14307;51.718;8.938;2023-09-18T01:59:37;17.50;99.90
26691;DHT22;14307;51.718;8.938;2023-09-18T02:02:05;17.50;99.90
26691;DHT22;14307;51.718;8.938;2023-09-18T02:04:36;17.50;99.90
26691;DHT22;14307;51.718;8.938;2023-09-18T02:07:24;17.60;99.90
26691;DHT22;14307;51.718;8.938;2023-09-18T02:09:51;17.70;99.90
26691;DHT22;14307;51.718;8.938;2023-09-18T02:12:18;17.80;99.90
26691;DHT22;14307;51.718;8.938;2023-09-18T02:14:45;17.80;99.90
26691;DHT22;14307;51.718;8.938;2023-09-18T02:17:12;17.80;99.90
26691;DHT22;14307;51.718;8.938;2023-09-18T02:19:40;18.00;99.90
26691;DHT22;14307;51.718;8.938;2023-09-18T02:22:06;18.10;99.90
26691;DHT22;14307;51.718;8.938;2023-09-18T02:24:33;18.20;99.90
26691;DHT22;14307;51.718;8.938;2023-09-18T02:27:04;18.20;99.90
26691;DHT22;14307;51.718;8.938;2023-09-18T02:29:31;18.30;99.90
26691;DHT22;14307;51.718;8.938;2023-09-18T02:31:59;18.20;99.90
26691;DHT22;14307;51.718;8.938;2023-09-18T02:34:26;18.20;99.90
26691;DHT22;14307;51.718;8.938;2023-09-18T02:36:53;18.20;99.90
26691;DHT22;14307;51.718;8.938;2023-09-18T02:39:20;18.10;99.90
26691;DHT22;14307;51.718;8.938;2023-09-18T02:41:48;18.00;99.90
26691;DHT22;14307;51.718;8.938;2023-09-18T02:44:15;18.00;99.90
26691;DHT22;14307;51.718;8.938;2023-09-18T02:46:42;18.00;99.90
26691;DHT22;14307;51.718;8.938;2023-09-18T02:49:12;18.00;99.90
26691;DHT22;14307;51.718;8.938;2023-09-18T02:51:39;18.00;99.90
26691;DHT22;14307;51.718;8.938;2023-09-18T02:54:06;18.00;99.90
26691;DHT22;14307;51.718;8.938;2023-09-18T02:56:32;17.90;99.90
26691;DHT22;14307;51.718;8.938;2023-09-18T02:58:59;18.00;99.90
26691;DHT22;14307;51.718;8.938;2023-09-18T03:01:26;18.00;99.90
26691;DHT22;14307;51.718;8.938;2023-09-18T03:03:53;18.00;99.90
26691;DHT22;14307;51.718;8.938;2023-09-18T03:06:20;18.10;99.90
26691;DHT22;14307;51.718;8.938;2023-09-18T03:08:47;18.10;99.90
26691;DHT22;14307;51.718;8.938;2023-09-18T03:11:14;18.20;99.90
26691;DHT22;14307;51.718;8.938;2023-09-18T03:13:44;18.20;99.90
26691;DHT22;14307;51.718;8.938;2023-09-18T03:16:16;18.30;99.90
26691;DHT22;14307;51.718;8.938;2023-09-18T03:18:45;18.20;99.90
26691;DHT22;14307;51.718;8.938;2023-09-18T03:21:12;18.30;99.90
26691;DHT22;14307;51.718;8.938;2023-09-18T03:23:38;18.30;99.90
26691;DHT22;14307;51.718;8.938;2023-09-18T03:26:05;18.30;99.90
26691;DHT22;14307;51.718;8.938;2023-09-18T03:28:32;18.30;99.90
26691;DHT22;14307;51.718;8.938;2023-09-18T03:30:59;18.30;99.90
26691;DHT22;14307;51.718;8.938;2023-09-18T03:33:26;18.30;99.90
26691;DHT22;14307;51.718;8.938;2023-09-18T03:35:54;18.30;99.90
26691;DHT22;14307;51.718;8.938;2023-09-18T03:38:24;18.30;99.90
26691;DHT22;14307;51.718;8.938;2023-09-18T03:40:52;18.30;99.90
26691;DHT22;14307;51.718;8.938;2023-09-18T03:43:19;18.30;99.90
26691;DHT22;14307;51.718;8.938;2023-09-18T03:45:46;18.30;99.90
26691;DHT22;14307;51.718;8.938;2023-09-18T03:48:13;18.40;99.90
26691;DHT22;14307;51.718;8.938;2023-09-18T03:50:42;18.50;99.90
26691;DHT22;14307;51.718;8.938;2023-09-18T03:53:10;18.40;99.90
26691;DHT22;14307;51.718;8.938;2023-09-18T03:55:37;18.50;99.90
26691;DHT22;14307;51.718;8.938;2023-09-18T03:58:05;18.60;99.90
26691;DHT22;14307;51.718;8.938;2023-09-18T04:00:31;18.60;99.90
26691;DHT22;14307;51.718;8.938;2023-09-18T04:02:58;18.70;99.90
26691;DHT22;14307;51.718;8.938;2023-09-18T04:05:26;18.60;99.90
26691;DHT22;14307;51.718;8.938;2023-09-18T04:07:55;18.70;99.90
26691;DHT22;14307;51.718;8.938;2023-09-18T04:10:22;18.70;99.90
26691;DHT22;14307;51.718;8.938;2023-09-18T04:12:51;18.70;99.90
26691;DHT22;14307;51.718;8.938;2023-09-18T04:15:18;18.70;99.90
26691;DHT22;14307;51.718;8.938;2023-09-18T04:17:46;18.50;99.90
26691;DHT22;14307;51.718;8.938;2023-09-18T04:20:13;18.60;99.90
26691;DHT22;14307;51.718;8.938;2023-09-18T04:22:43;18.70;99.90
26691;DHT22;14307;51.718;8.938;2023-09-18T04:25:11;18.70;99.90
26691;DHT22;14307;51.718;8.938;2023-09-18T04:27:38;18.80;99.90
26691;DHT22;14307;51.718;8.938;2023-09-18T04:30:06;18.80;99.90
26691;DHT22;14307;51.718;8.938;2023-09-18T04:32:36;18.80;99.90
26691;DHT22;14307;51.718;8.938;2023-09-18T04:35:05;18.80;99.90
26691;DHT22;14307;51.718;8.938;2023-09-18T04:37:36;18.80;99.90
26691;DHT22;14307;51.718;8.938;2023-09-18T04:40:06;18.80;99.90
26691;DHT22;14307;51.718;8.938;2023-09-18T04:42:38;18.70;99.90
26691;DHT22;14307;51.718;8.938;2023-09-18T04:45:07;18.70;99.90
26691;DHT22;14307;51.718;8.938;2023-09-18T04:47:34;18.80;99.90
26691;DHT22;14307;51.718;8.938;2023-09-18T04:50:02;18.80;99.90
26691;DHT22;14307;51.718;8.938;2023-09-18T04:52:36;18.80;99.90
26691;DHT22;14307;51.718;8.938;2023-09-18T04:55:04;18.80;99.90
26691;DHT22;14307;51.718;8.938;2023-09-18T04:57:32;18.90;99.90
26691;DHT22;14307;51.718;8.938;2023-09-18T05:00:00;19.00;99.90
26691;DHT22;14307;51.718;8.938;2023-09-18T05:02:43;19.00;99.90
26691;DHT22;14307;51.718;8.938;2023-09-18T05:05:10;19.00;99.90
26691;DHT22;14307;51.718;8.938;2023-09-18T05:07:37;19.00;99.90
26691;DHT22;14307;51.718;8.938;2023-09-18T05:10:04;18.90;99.90
26691;DHT22;14307;51.718;8.938;2023-09-18T05:12:31;19.00;99.90
26691;DHT22;14307;51.718;8.938;2023-09-18T05:14:58;19.00;99.90
26691;DHT22;14307;51.718;8.938;2023-09-18T05:17:40;18.90;99.90
26691;DHT22;14307;51.718;8.938;2023-09-18T05:20:10;19.00;99.90
26691;DHT22;14307;51.718;8.938;2023-09-18T05:22:38;19.00;99.90
26691;DHT22;14307;51.718;8.938;2023-09-18T05:25:05;18.90;99.90
26691;DHT22;14307;51.718;8.938;2023-09-18T05:27:33;18.90;99.90
26691;DHT22;14307;51.718;8.938;2023-09-18T05:30:00;18.90;99.90
26691;DHT22;14307;51.718;8.938;2023-09-18T05:32:27;18.80;99.90
26691;DHT22;14307;51.718;8.938;2023-09-18T05:34:54;18.80;99.90
26691;DHT22;14307;51.718;8.938;2023-09-18T05:37:20;18.70;99.90
26691;DHT22;14307;51.718;8.938;2023-09-18T05:39:47;18.70;99.90
26691;DHT22;14307;51.718;8.938;2023-09-18T05:42:14;18.70;99.90
26691;DHT22;14307;51.718;8.938;2023-09-18T05:44:40;18.70;99.90
26691;DHT22;14307;51.718;8.938;2023-09-18T05:47:07;18.70;99.90
26691;DHT22;14307;51.718;8.938;2023-09-18T05:49:35;18.60;99.90
26691;DHT22;14307;51.718;8.938;2023-09-18T05:52:02;18.60;99.90
26691;DHT22;14307;51.718;8.938;2023-09-18T05:54:29;18.60;99.90
26691;DHT22;14307;51.718;8.938;2023-09-18T05:57:04;18.70;99.90
26691;DHT22;14307;51.718;8.938;2023-09-18T05:59:33;18.70;99.90
26691;DHT22;14307;51.718;8.938;2023-09-18T06:02:00;18.70;99.90
26691;DHT22;14307;51.718;8.938;2023-09-18T06:04:26;18.70;99.90
26691;DHT22;14307;51.718;8.938;2023-09-18T06:06:53;18.70;99.90
26691;DHT22;14307;51.718;8.938;2023-09-18T06:09:20;18.70;99.90
26691;DHT22;14307;51.718;8.938;2023-09-18T06:11:47;18.70;99.90
26691;DHT22;14307;51.718;8.938;2023-09-18T06:14:15;18.60;99.90
26691;DHT22;14307;51.718;8.938;2023-09-18T06:16:42;18.60;99.90
26691;DHT22;14307;51.718;8.938;2023-09-18T06:19:08;18.60;99.90
26691;DHT22;14307;51.718;8.938;2023-09-18T06:21:35;18.60;99.90
26691;DHT22;14307;51.718;8.938;2023-09-18T06:24:02;18.50;99.90
26691;DHT22;14307;51.718;8.938;2023-09-18T06:26:29;18.40;99.90
26691;DHT22;14307;51.718;8.938;2023-09-18T06:28:56;18.50;99.90
26691;DHT22;14307;51.718;8.938;2023-09-18T06:31:23;18.60;99.90
26691;DHT22;14307;51.718;8.938;2023-09-18T06:33:50;18.70;99.90
26691;DHT22;14307;51.718;8.938;2023-09-18T06:36:17;18.80;99.90
26691;DHT22;14307;51.718;8.938;2023-09-18T06:38:43;18.80;99.90
26691;DHT22;14307;51.718;8.938;2023-09-18T06:41:10;18.90;99.90
26691;DHT22;14307;51.718;8.938;2023-09-18T06:43:37;18.90;99.90
26691;DHT22;14307;51.718;8.938;2023-09-18T06:46:04;19.00;99.90
26691;DHT22;14307;51.718;8.938;2023-09-18T06:48:33;19.20;99.90
26691;DHT22;14307;51.718;8.938;2023-09-18T06:51:01;19.20;99.90
26691;DHT22;14307;51.718;8.938;2023-09-18T06:53:28;19.30;99.90
26691;DHT22;14307;51.718;8.938;2023-09-18T06:55:55;19.30;99.90
26691;DHT22;14307;51.718;8.938;2023-09-18T06:58:22;19.30;99.90
26691;DHT22;14307;51.718;8.938;2023-09-18T07:00:49;19.40;99.90
26691;DHT22;14307;51.718;8.938;2023-09-18T07:03:16;19.40;99.90
26691;DHT22;14307;51.718;8.938;2023-09-18T07:05:46;19.50;99.90
26691;DHT22;14307;51.718;8.938;2023-09-18T07:08:13;19.50;99.90
26691;DHT22;14307;51.718;8.938;2023-09-18T07:10:41;19.50;99.90
26691;DHT22;14307;51.718;8.938;2023-09-18T07:13:08;19.60;99.90
26691;DHT22;14307;51.718;8.938;2023-09-18T07:15:35;19.60;99.90
26691;DHT22;14307;51.718;8.938;2023-09-18T07:18:03;19.70;99.90
26691;DHT22;14307;51.718;8.938;2023-09-18T07:20:30;19.80;99.90
26691;DHT22;14307;51.718;8.938;2023-09-18T07:22:57;19.80;99.90
26691;DHT22;14307;51.718;8.938;2023-09-18T07:25:24;19.90;99.90
26691;DHT22;14307;51.718;8.938;2023-09-18T07:27:51;19.90;99.90
26691;DHT22;14307;51.718;8.938;2023-09-18T07:30:18;20.00;99.90
26691;DHT22;14307;51.718;8.938;2023-09-18T07:32:46;20.10;99.90
26691;DHT22;14307;51.718;8.938;2023-09-18T07:35:13;20.10;99.90
26691;DHT22;14307;51.718;8.938;2023-09-18T07:37:41;20.20;99.90
26691;DHT22;14307;51.718;8.938;2023-09-18T07:40:11;20.20;99.90
26691;DHT22;14307;51.718;8.938;2023-09-18T07:42:38;20.20;99.90
26691;DHT22;14307;51.718;8.938;2023-09-18T07:45:05;20.20;99.90
26691;DHT22;14307;51.718;8.938;2023-09-18T07:47:33;20.20;99.90
26691;DHT22;14307;51.718;8.938;2023-09-18T07:50:00;20.20;99.90
26691;DHT22;14307;51.718;8.938;2023-09-18T07:52:27;20.20;99.90
26691;DHT22;14307;51.718;8.938;2023-09-18T07:54:54;20.20;99.90
26691;DHT22;14307;51.718;8.938;2023-09-18T07:57:21;20.30;99.90
26691;DHT22;14307;51.718;8.938;2023-09-18T07:59:50;20.40;99.90
26691;DHT22;14307;51.718;8.938;2023-09-18T08:02:17;20.40;99.90
26691;DHT22;14307;51.718;8.938;2023-09-18T08:04:44;20.40;99.90
26691;DHT22;14307;51.718;8.938;2023-09-18T08:07:11;20.40;99.90
26691;DHT22;14307;51.718;8.938;2023-09-18T08:09:39;20.40;99.90
26691;DHT22;14307;51.718;8.938;2023-09-18T08:12:07;20.40;99.90
26691;DHT22;14307;51.718;8.938;2023-09-18T08:14:35;20.50;99.90
26691;DHT22;14307;51.718;8.938;2023-09-18T08:17:04;20.50;99.90
26691;DHT22;14307;51.718;8.938;2023-09-18T08:19:34;20.60;99.90
26691;DHT22;14307;51.718;8.938;2023-09-18T08:22:02;20.70;99.90
26691;DHT22;14307;51.718;8.938;2023-09-18T08:24:31;20.70;99.90
26691;DHT22;14307;51.718;8.938;2023-09-18T08:26:58;20.70;99.90
26691;DHT22;14307;51.718;8.938;2023-09-18T08:29:25;20.80;99.90
26691;DHT22;14307;51.718;8.938;2023-09-18T08:31:52;20.90;99.90
26691;DHT22;14307;51.718;8.938;2023-09-18T08:34:19;20.90;99.90
26691;DHT22;14307;51.718;8.938;2023-09-18T08:36:48;20.90;99.90
26691;DHT22;14307;51.718;8.938;2023-09-18T08:39:16;20.90;99.90
26691;DHT22;14307;51.718;8.938;2023-09-18T08:41:43;20.90;99.90
26691;DHT22;14307;51.718;8.938;2023-09-18T08:44:12;21.00;99.90
26691;DHT22;14307;51.718;8.938;2023-09-18T08:46:40;21.00;99.90
26691;DHT22;14307;51.718;8.938;2023-09-18T08:49:07;21.00;99.90
26691;DHT22;14307;51.718;8.938;2023-09-18T08:51:34;21.10;99.90
26691;DHT22;14307;51.718;8.938;2023-09-18T08:54:03;21.00;99.90
26691;DHT22;14307;51.718;8.938;2023-09-18T08:56:32;20.90;99.90
26691;DHT22;14307;51.718;8.938;2023-09-18T08:59:00;20.90;99.90
26691;DHT22;14307;51.718;8.938;2023-09-18T09:01:26;20.90;99.90
26691;DHT22;14307;51.718;8.938;2023-09-18T09:03:53;20.80;99.90
26691;DHT22;14307;51.718;8.938;2023-09-18T09:06:22;20.90;99.90
26691;DHT22;14307;51.718;8.938;2023-09-18T09:08:50;20.80;99.90
26691;DHT22;14307;51.718;8.938;2023-09-18T09:11:18;20.90;99.90
26691;DHT22;14307;51.718;8.938;2023-09-18T09:13:46;20.90;99.90
26691;DHT22;14307;51.718;8.938;2023-09-18T09:16:13;20.90;99.90
26691;DHT22;14307;51.718;8.938;2023-09-18T09:18:48;21.00;99.90
26691;DHT22;14307;51.718;8.938;2023-09-18T09:21:16;21.00;99.90
26691;DHT22;14307;51.718;8.938;2023-09-18T09:23:52;21.10;99.90
26691;DHT22;14307;51.718;8.938;2023-09-18T09:26:21;21.00;99.90
26691;DHT22;14307;51.718;8.938;2023-09-18T09:28:49;21.10;99.90
26691;DHT22;14307;51.718;8.938;2023-09-18T09:31:29;21.20;99.90
26691;DHT22;14307;51.718;8.938;2023-09-18T09:33:57;21.20;99.90
26691;DHT22;14307;51.718;8.938;2023-09-18T09:36:25;21.10;99.90
26691;DHT22;14307;51.718;8.938;2023-09-18T09:38:56;21.20;99.90
26691;DHT22;14307;51.718;8.938;2023-09-18T09:41:25;21.10;99.90
26691;DHT22;14307;51.718;8.938;2023-09-18T09:43:54;21.20;99.90
26691;DHT22;14307;51.718;8.938;2023-09-18T09:46:22;21.20;99.90
26691;DHT22;14307;51.718;8.938;2023-09-18T09:49:05;21.20;99.90
26691;DHT22;14307;51.718;8.938;2023-09-18T09:51:33;21.10;99.90
26691;DHT22;14307;51.718;8.938;2023-09-18T09:54:00;21.30;99.90
26691;DHT22;14307;51.718;8.938;2023-09-18T09:56:48;21.10;99.90
26691;DHT22;14307;51.718;8.938;2023-09-18T09:59:18;21.10;99.90
26691;DHT22;14307;51.718;8.938;2023-09-18T10:01:49;21.10;99.90
26691;DHT22;14307;51.718;8.938;2023-09-18T10:04:18;21.00;99.90
26691;DHT22;14307;51.718;8.938;2023-09-18T10:06:51;21.10;99.90
26691;DHT22;14307;51.718;8.938;2023-09-18T10:09:20;21.20;99.90
26691;DHT22;14307;51.718;8.938;2023-09-18T10:11:51;21.20;99.90
26691;DHT22;14307;51.718;8.938;2023-09-18T10:14:20;21.20;99.90
26691;DHT22;14307;51.718;8.938;2023-09-18T10:16:53;21.30;99.90
26691;DHT22;14307;51.718;8.938;2023-09-18T10:19:31;21.30;99.90
26691;DHT22;14307;51.718;8.938;2023-09-18T10:24:50;21.40;99.90
26691;DHT22;14307;51.718;8.938;2023-09-18T10:27:21;21.30;99.90
26691;DHT22;14307;51.718;8.938;2023-09-18T10:29:49;21.30;99.90
26691;DHT22;14307;51.718;8.938;2023-09-18T10:32:18;21.20;99.90
26691;DHT22;14307;51.718;8.938;2023-09-18T10:34:48;21.30;99.90
26691;DHT22;14307;51.718;8.938;2023-09-18T10:37:15;21.30;99.90
26691;DHT22;14307;51.718;8.938;2023-09-18T10:39:42;21.40;99.90
26691;DHT22;14307;51.718;8.938;2023-09-18T10:42:12;21.40;99.90
26691;DHT22;14307;51.718;8.938;2023-09-18T10:44:40;21.40;99.90
26691;DHT22;14307;51.718;8.938;2023-09-18T10:47:10;21.30;99.90
26691;DHT22;14307;51.718;8.938;2023-09-18T10:49:38;21.30;99.90
26691;DHT22;14307;51.718;8.938;2023-09-18T10:52:05;21.40;99.90
26691;DHT22;14307;51.718;8.938;2023-09-18T10:54:32;21.40;99.90
26691;DHT22;14307;51.718;8.938;2023-09-18T10:56:59;21.30;99.90
26691;DHT22;14307;51.718;8.938;2023-09-18T10:59:28;21.30;99.90
26691;DHT22;14307;51.718;8.938;2023-09-18T11:01:56;21.40;99.90
26691;DHT22;14307;51.718;8.938;2023-09-18T11:04:23;21.50;99.90
26691;DHT22;14307;51.718;8.938;2023-09-18T11:14:58;21.40;99.90
26691;DHT22;14307;51.718;8.938;2023-09-18T11:17:30;21.20;99.90
26691;DHT22;14307;51.718;8.938;2023-09-18T11:22:37;21.10;99.90
26691;DHT22;14307;51.718;8.938;2023-09-18T11:28:02;21.20;99.90
26691;DHT22;14307;51.718;8.938;2023-09-18T11:30:31;21.20;99.90
26691;DHT22;14307;51.718;8.938;2023-09-18T11:32:59;21.20;99.90
26691;DHT22;14307;51.718;8.938;2023-09-18T11:35:27;21.30;99.90
26691;DHT22;14307;51.718;8.938;2023-09-18T11:38:23;21.40;99.90
26691;DHT22;14307;51.718;8.938;2023-09-18T11:40:50;21.50;99.90
26691;DHT22;14307;51.718;8.938;2023-09-18T11:43:26;21.70;99.90
26691;DHT22;14307;51.718;8.938;2023-09-18T11:45:58;21.70;99.90
26691;DHT22;14307;51.718;8.938;2023-09-18T11:48:27;21.60;99.90
26691;DHT22;14307;51.718;8.938;2023-09-18T11:50:57;21.60;99.90
26691;DHT22;14307;51.718;8.938;2023-09-18T11:53:27;21.70;99.90
26691;DHT22;14307;51.718;8.938;2023-09-18T11:55:55;21.60;99.90
26691;DHT22;14307;51.718;8.938;2023-09-18T11:58:22;21.60;99.90
26691;DHT22;14307;51.718;8.938;2023-09-18T12:00:50;21.60;99.90
26691;DHT22;14307;51.718;8.938;2023-09-18T12:03:22;21.70;99.90
26691;DHT22;14307;51.718;8.938;2023-09-18T12:06:01;21.60;99.90
26691;DHT22;14307;51.718;8.938;2023-09-18T12:08:29;21.60;99.90
26691;DHT22;14307;51.718;8.938;2023-09-18T12:10:58;21.70;99.90
26691;DHT22;14307;51.718;8.938;2023-09-18T12:13:27;21.70;99.90
26691;DHT22;14307;51.718;8.938;2023-09-18T12:16:00;21.70;99.90
26691;DHT22;14307;51.718;8.938;2023-09-18T12:18:29;21.60;99.90
26691;DHT22;14307;51.718;8.938;2023-09-18T12:20:57;21.60;99.90
26691;DHT22;14307;51.718;8.938;2023-09-18T12:23:26;21.60;99.90
26691;DHT22;14307;51.718;8.938;2023-09-18T12:25:59;21.60;99.90
26691;DHT22;14307;51.718;8.938;2023-09-18T12:28:26;21.60;99.90
26691;DHT22;14307;51.718;8.938;2023-09-18T12:30:56;21.40;99.90
26691;DHT22;14307;51.718;8.938;2023-09-18T12:33:24;21.50;99.90
26691;DHT22;14307;51.718;8.938;2023-09-18T12:35:57;21.50;99.90
26691;DHT22;14307;51.718;8.938;2023-09-18T12:38:26;21.40;99.90
26691;DHT22;14307;51.718;8.938;2023-09-18T12:40:58;21.40;99.90
26691;DHT22;14307;51.718;8.938;2023-09-18T12:43:40;21.40;99.90
26691;DHT22;14307;51.718;8.938;2023-09-18T12:46:08;21.40;99.90
26691;DHT22;14307;51.718;8.938;2023-09-18T12:48:39;21.50;99.90
26691;DHT22;14307;51.718;8.938;2023-09-18T12:51:13;21.70;99.90
26691;DHT22;14307;51.718;8.938;2023-09-18T12:53:41;21.60;99.90
26691;DHT22;14307;51.718;8.938;2023-09-18T12:56:12;21.60;99.90
26691;DHT22;14307;51.718;8.938;2023-09-18T12:58:40;21.80;99.90
26691;DHT22;14307;51.718;8.938;2023-09-18T13:01:27;22.00;99.90
26691;DHT22;14307;51.718;8.938;2023-09-18T13:03:54;22.30;99.90
26691;DHT22;14307;51.718;8.938;2023-09-18T13:06:22;22.50;99.90
26691;DHT22;14307;51.718;8.938;2023-09-18T13:08:50;22.60;99.90
26691;DHT22;14307;51.718;8.938;2023-09-18T13:11:20;22.70;99.90
26691;DHT22;14307;51.718;8.938;2023-09-18T13:13:57;22.80;99.90
26691;DHT22;14307;51.718;8.938;2023-09-18T13:16:24;22.60;99.90
26691;DHT22;14307;51.718;8.938;2023-09-18T13:18:52;22.50;99.90
26691;DHT22;14307;51.718;8.938;2023-09-18T13:21:19;22.60;99.90
26691;DHT22;14307;51.718;8.938;2023-09-18T13:23:46;22.60;99.90
26691;DHT22;14307;51.718;8.938;2023-09-18T13:26:13;22.50;99.90
26691;DHT22;14307;51.718;8.938;2023-09-18T13:28:40;22.50;99.90
26691;DHT22;14307;51.718;8.938;2023-09-18T13:31:09;22.40;99.90
26691;DHT22;14307;51.718;8.938;2023-09-18T13:33:39;22.40;99.90
26691;DHT22;14307;51.718;8.938;2023-09-18T13:36:11;22.30;99.90
26691;DHT22;14307;51.718;8.938;2023-09-18T13:38:38;22.30;99.90
26691;DHT22;14307;51.718;8.938;2023-09-18T13:41:05;22.30;99.90
26691;DHT22;14307;51.718;8.938;2023-09-18T13:43:32;22.40;99.90
26691;DHT22;14307;51.718;8.938;2023-09-18T13:46:01;22.30;99.90
26691;DHT22;14307;51.718;8.938;2023-09-18T13:48:31;22.40;99.90
26691;DHT22;14307;51.718;8.938;2023-09-18T13:51:00;22.50;99.90
26691;DHT22;14307;51.718;8.938;2023-09-18T13:53:28;22.50;99.90
26691;DHT22;14307;51.718;8.938;2023-09-18T13:55:56;22.60;99.90
26691;DHT22;14307;51.718;8.938;2023-09-18T13:58:23;22.50;99.90
26691;DHT22;14307;51.718;8.938;2023-09-18T14:00:50;22.50;99.90
26691;DHT22;14307;51.718;8.938;2023-09-18T14:03:17;22.60;99.90
26691;DHT22;14307;51.718;8.938;2023-09-18T14:05:45;22.70;99.90
26691;DHT22;14307;51.718;8.938;2023-09-18T14:08:12;22.70;99.90
26691;DHT22;14307;51.718;8.938;2023-09-18T14:10:39;22.80;99.90
26691;DHT22;14307;51.718;8.938;2023-09-18T14:13:06;23.00;99.90
26691;DHT22;14307;51.718;8.938;2023-09-18T14:15:34;23.10;99.90
26691;DHT22;14307;51.718;8.938;2023-09-18T14:18:01;23.20;99.90
26691;DHT22;14307;51.718;8.938;2023-09-18T14:20:27;23.20;99.90
26691;DHT22;14307;51.718;8.938;2023-09-18T14:22:54;23.30;99.90
26691;DHT22;14307;51.718;8.938;2023-09-18T14:25:21;23.30;99.90
26691;DHT22;14307;51.718;8.938;2023-09-18T14:27:49;23.30;99.90
26691;DHT22;14307;51.718;8.938;2023-09-18T14:30:16;23.20;99.90
26691;DHT22;14307;51.718;8.938;2023-09-18T14:32:43;23.30;99.90
26691;DHT22;14307;51.718;8.938;2023-09-18T14:35:10;23.20;99.90
26691;DHT22;14307;51.718;8.938;2023-09-18T14:37:38;22.90;99.90
26691;DHT22;14307;51.718;8.938;2023-09-18T14:40:05;22.70;99.90
26691;DHT22;14307;51.718;8.938;2023-09-18T14:42:32;22.60;99.90
26691;DHT22;14307;51.718;8.938;2023-09-18T14:44:59;22.50;99.90
26691;DHT22;14307;51.718;8.938;2023-09-18T14:47:28;22.40;99.90
26691;DHT22;14307;51.718;8.938;2023-09-18T14:49:55;22.30;99.90
26691;DHT22;14307;51.718;8.938;2023-09-18T14:52:24;22.30;99.90
26691;DHT22;14307;51.718;8.938;2023-09-18T14:54:53;22.20;99.90
26691;DHT22;14307;51.718;8.938;2023-09-18T14:57:20;22.20;99.90
26691;DHT22;14307;51.718;8.938;2023-09-18T14:59:46;22.20;99.90
26691;DHT22;14307;51.718;8.938;2023-09-18T15:02:16;22.20;99.90
26691;DHT22;14307;51.718;8.938;2023-09-18T15:04:45;22.10;99.90
26691;DHT22;14307;51.718;8.938;2023-09-18T15:07:13;22.00;99.90
26691;DHT22;14307;51.718;8.938;2023-09-18T15:09:40;22.00;99.90
26691;DHT22;14307;51.718;8.938;2023-09-18T15:12:08;22.10;99.90
26691;DHT22;14307;51.718;8.938;2023-09-18T15:14:38;22.10;99.90
26691;DHT22;14307;51.718;8.938;2023-09-18T15:17:05;22.00;99.90
26691;DHT22;14307;51.718;8.938;2023-09-18T15:19:36;22.00;99.90
26691;DHT22;14307;51.718;8.938;2023-09-18T15:22:04;21.90;99.90
26691;DHT22;14307;51.718;8.938;2023-09-18T15:24:31;21.90;99.90
26691;DHT22;14307;51.718;8.938;2023-09-18T15:26:59;21.90;99.90
26691;DHT22;14307;51.718;8.938;2023-09-18T15:29:26;21.80;99.90
26691;DHT22;14307;51.718;8.938;2023-09-18T15:32:01;21.80;99.90
26691;DHT22;14307;51.718;8.938;2023-09-18T15:34:32;21.90;99.90
26691;DHT22;14307;51.718;8.938;2023-09-18T15:36:59;21.90;99.90
26691;DHT22;14307;51.718;8.938;2023-09-18T15:39:28;21.90;99.90
26691;DHT22;14307;51.718;8.938;2023-09-18T15:41:56;22.00;99.90
26691;DHT22;14307;51.718;8.938;2023-09-18T15:44:23;22.10;99.90
26691;DHT22;14307;51.718;8.938;2023-09-18T15:46:50;22.20;99.90
26691;DHT22;14307;51.718;8.938;2023-09-18T15:49:16;22.20;99.90
26691;DHT22;14307;51.718;8.938;2023-09-18T15:51:45;22.10;99.90
26691;DHT22;14307;51.718;8.938;2023-09-18T15:54:12;22.00;99.90